Bridgeport Valley, California Weather observations

Data are for 10 minute period ending at time listed.
 Day   Time   Solar   Ave.   Ave.  Ave.  Vector  Max.   Baro.   Total    
  of    of     Rad.   Air    Rel.  Wind   Wind   Wind  Press.  Precip.   
Year   Day            Temp.  Hum.  Speed  Dir.   Gust                    
2017   (PST)  Kw/m2    F      %     mph   deg.    mph    mb.     in.     
-------------------------------------------------------------------------
  85    2:30   0.00   22.4    88    2.4   174     3.2   799.6    0.00 
  85    2:40   0.00   22.4    86    2.4   251     3.8   799.6    0.00 
  85    2:50   0.00   22.1    88    0.9   291     2.8   799.5    0.00 
  85    3:00   0.00   21.8    86    1.9   260     4.5   799.4    0.00 
  85    3:10   0.00   21.4    89    0.5   325     2.0   799.4    0.00 
  85    3:20   0.00   21.2    88    1.5   325     7.4   799.3    0.00 
  85    3:30   0.00   21.9    89    3.8   276     8.1   799.2    0.00 
  85    3:40   0.00   22.1    86    2.2   276     5.2   799.3    0.00 
  85    3:50   0.00   21.7    87    3.2   235     5.8   799.3    0.00 
  85    4:00   0.00   23.9    84    3.3   178     6.2   799.2    0.00 
  85    4:10   0.00   22.8    86    3.9   183     5.6   799.1    0.00 
  85    4:20   0.00   22.3    86    3.1   195     6.9   799.1    0.00 
  85    4:30   0.00   22.3    86    2.2   248     4.7   799.1    0.00 
  85    4:40   0.00   23.5    85    2.1   224     4.7   799.0    0.00 
  85    4:50   0.00   22.9    84    3.1   306     4.9   799.1    0.00 
  85    5:00   0.00   22.8    86    1.8   267     3.7   799.0    0.00 
  85    5:10   0.00   22.1    87    1.7   242     6.0   799.0    0.00 
  85    5:20   0.00   22.4    86    2.3   114     4.5   798.9    0.00 
  85    5:30   0.00   22.9    86    2.4   200     4.2   798.8    0.00 
  85    5:40   0.00   23.9    84    2.6   242     4.6   798.8    0.00 
  85    5:50   0.01   23.3    86    1.5   329     3.8   798.8    0.00 
  85    6:00   0.01   23.2    88    1.8   100     4.3   798.9    0.00 
  85    6:10   0.02   23.4    89    3.8   121     5.4   798.8    0.00 
  85    6:20   0.05   24.1    89    2.5   171     3.7   798.9    0.00 
  85    6:30   0.05   25.5    87    2.4   223     5.6   798.8    0.00 
  85    6:40   0.05   26.1    86    2.0   240     5.6   798.8    0.00 
  85    6:50   0.07   26.8    86    1.6   189     3.7   798.7    0.00 
  85    7:00   0.07   27.4    84    1.9    56     3.9   798.7    0.00 
  85    7:10   0.08   28.1    84    2.4    57     5.5   798.6    0.00 
  85    7:20   0.07   28.4    85    2.7    21     4.2   798.7    0.00 
  85    7:30   0.08   28.6    84    3.2    14     5.6   798.8    0.00 
  85    7:40   0.12   29.1    85    2.8    32     5.0   798.9    0.00 
  85    7:50   0.18   29.5    84    1.9   201     4.7   798.9    0.00 
  85    8:00   0.18   30.1    82    3.1   170     5.4   798.6    0.00 
  85    8:10   0.19   31.1    79    4.3   173     6.4   798.4    0.00 
  85    8:20   0.20   32.4    73    4.3   182     6.9   798.3    0.00 
  85    8:30   0.22   33.4    70    4.1   277     8.4   798.6    0.00 
  85    8:40   0.27   36.0    67    4.0   176     6.6   798.5    0.00 
  85    8:50   0.33   37.4    66    5.6    97    10.3   798.5    0.00 
  85    9:00   0.45   38.9    60    4.4   122     7.0   798.5    0.00 
  85    9:10   0.29   43.1    38    6.8   192    10.4   798.7    0.00 
  85    9:20   0.23   44.0    34    6.2   175     9.4   798.8    0.00 
  85    9:30   0.32   45.0    36    5.8   167     8.8   798.8    0.00 
  85    9:40   0.41   45.9    34    7.8   175    12.0   798.8    0.00 
  85    9:50   0.54   46.8    33    8.4   160    12.1   798.7    0.00 
  85   10:00   0.51   47.1    34    9.1   152    13.2   798.7    0.00 
  85   10:10   0.46   47.5    42   10.0   188    18.6   798.7    0.00 
  85   10:20   0.46   47.4    42    8.0   176    19.3   798.8    0.00 
  85   10:30   0.40   47.9    42    6.1   276    15.8   798.8    0.00 
  85   10:40   0.48   48.2    38    4.3   305    15.3   799.0    0.00 
  85   10:50   0.73   49.0    44   12.0   239    24.7   799.1    0.00 
  85   11:00   0.58   47.4    47   13.8   248    24.4   799.1    0.00 
  85   11:10   0.52   46.7    51   17.4   234    28.2   799.1    0.00 
  85   11:20   0.64   46.8    52   16.0   238    27.5   799.0    0.00 
  85   11:30   0.88   48.3    51   12.9   242    25.4   798.9    0.00 
  85   11:40   0.92   49.7    48   10.4   228    20.8   799.0    0.00 
  85   11:50   0.61   49.7    48   11.8   221    18.6   799.0    0.00 
  85   12:00   0.91   50.5    49   12.4   225    19.6   799.1    0.00 
  85   12:10   0.96   51.3    49   11.7   239    25.7   799.0    0.00 
  85   12:20   0.84   51.5    46   10.0   263    18.9   799.1    0.00 
  85   12:30   1.11   51.4    49   14.0   230    20.2   799.1    0.00 
  85   12:40   1.13   51.4    48   12.8   226    21.1   799.1    0.00 
  85   12:50   1.00   51.3    50   15.6   228    23.4   799.1    0.00 
  85   13:00   1.20   51.0    50   16.6   233    25.6   799.2    0.00 
  85   13:10   1.11   50.9    49   17.0   226    25.5   799.1    0.00 
  85   13:20   1.13   51.7    49   15.2   234    22.1   799.2    0.00 
  85   13:30   1.05   51.5    48   15.3   229    22.6   799.2    0.00 
  85   13:40   1.07   51.9    49   14.7   229    21.0   799.2    0.00 
  85   13:50   0.91   51.4    49   14.8   224    20.2   799.1    0.00 
  85   14:00   0.96   52.1    48   13.5   224    18.7   799.1    0.00 
  85   14:10   0.80   51.7    46   11.6   232    20.5   799.0    0.00 
  85   14:20   0.92   52.1    49   13.9   236    20.3   799.0    0.00 
  85   14:30   0.81   52.1    43   10.0   203    18.3   799.0    0.00 
  85   14:40   0.75   51.9    47   12.6   236    19.2   799.1    0.00 
  85   14:50   0.71   51.4    47   12.6   228    23.6   799.1    0.00 
  85   15:00   0.68   51.1    48   15.1   228    22.1   799.0    0.00 
  85   15:10   0.66   51.0    48   15.5   229    21.1   799.0    0.00 
  85   15:20   0.63   51.0    49   16.0   230    22.3   799.0    0.00 
  85   15:30   0.60   50.6    50   16.4   230    24.7   799.1    0.00 
  85   15:40   0.56   50.6    48   13.8   225    20.8   799.1    0.00 
  85   15:50   0.46   50.1    49   15.9   228    24.6   799.1    0.00 
  85   16:00   0.48   50.2    48   14.8   229    21.6   799.2    0.00 
  85   16:10   0.43   49.7    48   17.3   234    26.5   799.2    0.00 
  85   16:20   0.39   49.2    46   16.1   238    24.5   799.1    0.00 
  85   16:30   0.34   48.8    46   15.0   245    23.8   799.1    0.00 
  85   16:40   0.23   47.9    45   14.5   229    21.9   799.0    0.00 
  85   16:50   0.29   47.9    44   13.8   232    20.1   798.9    0.00 
  85   17:00   0.26   47.9    43   13.1   240    20.0   798.8    0.00 
  85   17:10   0.21   47.7    42   10.9   233    16.6   798.7    0.00 
  85   17:20   0.16   47.2    42   11.3   235    16.3   798.6    0.00 
  85   17:30   0.12   46.5    42    7.6   247    12.1   798.8    0.00 
  85   17:40   0.11   46.7    39    5.8   250     7.7   798.8    0.00 
  85   17:50   0.07   45.5    44    5.6   308     8.8   798.9    0.00 
  85   18:00   0.02   43.4    48    5.0   328     7.5   798.9    0.00 
  85   18:10   0.01   42.3    49    5.3   332     8.0   798.8    0.00 
  85   18:20   0.01   40.8    55    6.1   353     8.6   798.6    0.00 
  85   18:30   0.00   39.8    55    5.4     6     8.9   798.5    0.00 
  85   18:40   0.00   39.2    57    4.8    85     7.2   798.3    0.00 
  85   18:50   0.00   38.6    58    5.9    98     9.6   798.3    0.00 
  85   19:00   0.00   38.7    57    6.1    90    10.0   798.3    0.00 
  85   19:10   0.00   37.4    61    3.3    12     5.7   798.4    0.00 
  85   19:20   0.00   36.6    62    3.4    24     5.4   798.5    0.00 
  85   19:30   0.00   36.5    61    5.3    33     8.8   798.6    0.00 
  85   19:40   0.00   37.0    59    5.1   244     9.5   798.7    0.00 
  85   19:50   0.00   40.6    48   10.2   233    19.4   798.7    0.00 
  85   20:00   0.00   41.0    48    9.4   249    15.3   798.8    0.00 
  85   20:10   0.00   41.7    46    5.4   271    11.2   798.8    0.00 
  85   20:20   0.00   40.5    48    4.3   277     8.4   798.8    0.00 
  85   20:30   0.00   39.4    50    1.7   274     4.2   798.9    0.00 
  85   20:40   0.00   39.6    50    3.3   338     5.1   798.9    0.00 
  85   20:50   0.00   37.9    57    5.5   337     8.3   798.9    0.00 
  85   21:00   0.00   38.8    56    3.2   298     9.0   798.9    0.00 
  85   21:10   0.00   39.9    50    4.0   260     9.9   798.8    0.00 
  85   21:20   0.00   39.5    51    2.0    72     5.8   798.8    0.00 
  85   21:30   0.00   39.2    50    5.7   164    10.3   798.7    0.00 
  85   21:40   0.00   39.7    47    2.7   265     8.0   798.7    0.00 
  85   21:50   0.00   38.5    50    1.8   250     8.3   798.5    0.00 
  85   22:00   0.00   37.6    51    2.2    57     6.4   798.4    0.00 
  85   22:10   0.00   37.5    52    3.2   115     9.8   798.4    0.00 
  85   22:20   0.00   35.5    58    5.2   109    10.9   798.3    0.00 
  85   22:30   0.00   37.8    58    5.0   229    11.8   798.3    0.00 
  85   22:40   0.00   36.7    59    6.9   178    12.8   798.3    0.00 
  85   22:50   0.00   38.0    52    2.6   158     5.8   798.3    0.00 
  85   23:00   0.00   37.5    56    2.9   255     5.9   798.4    0.00 
  85   23:10   0.00   37.8    58   13.1   242    25.3   798.3    0.00 
  85   23:20   0.00   36.7    62    7.7   277    11.5   798.2    0.00 
  85   23:30   0.00   35.4    68    7.3   291    10.0   798.3    0.00 
  85   23:40   0.00   36.0    65    8.0   279    12.5   798.1    0.00 
  85   23:50   0.00   35.5    67    6.2   280     9.6   798.0    0.00 
  86    0:00   0.00   35.1    65    6.8   263    11.7   798.0    0.00 
  86    0:10   0.00   35.5    70    9.6   276    15.5   797.9    0.00 
  86    0:20   0.00   34.4    78    8.0   292    12.8   797.8    0.00 
  86    0:30   0.00   34.3    80    9.3   304    12.8   797.7    0.00 
  86    0:40   0.00   34.8    77    7.1   302    10.8   797.7    0.00 
  86    0:50   0.00   35.4    75    5.1   304    10.0   797.8    0.00 
  86    1:00   0.00   34.8    76    3.6   134     7.2   798.1    0.00 
  86    1:10   0.00   34.9    78    3.3   105     5.8   798.3    0.00 
  86    1:20   0.00   33.7    85    2.8   114     4.2   798.2    0.00 
  86    1:30   0.00   32.8    89    2.4   132     3.1   798.1    0.00 
  86    1:40   0.00   32.0    91    3.3   138     5.2   798.1    0.00 
  86    1:50   0.00   32.1    92    2.9   153     5.4   798.1    0.00 
  86    2:00   0.00   32.1    93    2.3   220     3.8   798.2    0.00 
  86    2:10   0.00   32.5    93    5.3   177     8.3   798.2    0.00 
  86    2:20   0.00   32.7    92    5.7   178     8.8   798.2    0.00 

Return to Bridgeport Valley graphs page.


Western Regional Climate Center,wrcc@dri.edu